Latest Weather Observations for Khancoban

IDN60801

Issued at 10:32 am EDT Friday 27 March 2015 (issued every 30 minutes, with the page automatically refreshed every 10 minutes)

About weather observations | Map of weather stations | Latest weather observations for NSW | Other Formats
Station Details ID: 072162 Name: KHANCOBAN AWS Lat: -36.23 Lon: 148.14 Height: 339.3 m
Data from the previous 72 hours. | See also: Recent months at Khancoban
Date/Time
EDT
Temp
°C
App
Temp
°C
Dew
Point
Rel
Hum
%
Delta-T
°C
Wind Press
QNH
hPa
Press
MSL
hPa
Rain
since 9 am
mm
Dir
 
Spd
km/h
Gust
km/h
Spd
kts
Gust
kts
27/10:00am 12.7 9.1 5.1 60 3.6 WNW 13 19 7 10 1023.4 1022.4 0.0
27/09:30am 12.5 8.9 5.2 61 3.4 N 13 19 7 10 1023.0 1022.0 0.0
27/09:00am 12.1 8.6 5.3 63 3.2 NW 13 15 7 8 1023.1 1022.1 0.0
27/08:30am 11.7 8.1 4.9 63 3.2 N 13 19 7 10 1022.9 1021.9 0.0
27/08:00am 11.4 8.1 4.4 62 3.2 NW 11 17 6 9 1022.5 1021.5 0.0
27/07:30am 11.0 7.6 4.0 62 3.2 NW 11 17 6 9 1022.0 1021.0 0.0
27/07:00am 10.5 7.9 3.1 60 3.3 NW 6 11 3 6 1021.6 1020.6 0.0
27/06:30am 11.2 8.9 3.0 57 3.6 NNE 4 6 2 3 1021.3 1020.3 0.0
27/06:00am 11.1 9.6 3.2 58 3.5 CALM 0 0 0 0 1021.4 1020.5 0.0
27/05:30am 11.2 9.2 2.5 55 3.8 NW 2 7 1 4 1021.2 1020.2 0.0
27/05:00am 11.3 8.3 2.3 54 3.9 NW 7 11 4 6 1021.2 1020.2 0.0
27/04:30am 11.6 9.3 2.6 54 4.0 NW 4 7 2 4 1021.2 1020.2 0.0
27/04:00am 12.3 7.8 2.2 50 4.4 N 15 20 8 11 1021.1 1020.1 0.0
27/03:30am 12.3 8.9 1.9 49 4.6 N 9 13 5 7 1021.2 1020.2 0.0
27/03:00am 12.1 8.7 2.0 50 4.4 N 9 13 5 7 1021.5 1020.5 0.0
27/02:30am 11.5 9.7 1.2 49 4.4 CALM 0 0 0 0 1021.6 1020.6 0.0
27/02:00am 10.7 8.9 1.0 51 4.1 CALM 0 2 0 1 1021.7 1020.7 0.0
27/01:30am 11.2 9.3 0.6 48 4.5 CALM 0 2 0 1 1021.7 1020.7 0.0
27/01:00am 12.0 8.0 0.5 45 4.8 N 11 17 6 9 1021.8 1020.8 0.0
27/12:30am 11.9 6.7 0.1 44 4.9 N 17 24 9 13 1021.8 1020.8 0.0
27/12:00am 9.8 7.2 0.7 53 3.8 S 4 7 2 4 1021.9 1020.8 0.0
 
Date/Time
EDT
Temp
°C
App
Temp
°C
Dew
Point
Rel
Hum
%
Delta-T
°C
Wind Press
QNH
hPa
Press
MSL
hPa
Rain
since 9 am
mm
Dir
 
Spd
km/h
Gust
km/h
Spd
kts
Gust
kts
26/11:30pm 9.5 6.4 0.1 52 3.8 W 6 7 3 4 1022.0 1021.0 0.0
26/11:00pm 10.3 6.2 0.1 49 4.2 N 11 17 6 9 1022.0 1021.0 0.0
26/10:30pm 10.7 8.7 -0.1 47 4.5 CALM 0 6 0 3 1022.1 1021.1 0.0
26/10:00pm 11.3 8.1 -0.2 45 4.7 N 6 7 3 4 1022.0 1021.0 0.0
26/09:30pm 12.2 8.5 -0.3 42 5.2 N 9 13 5 7 1021.8 1020.8 0.0
26/09:00pm 12.5 9.3 -0.7 40 5.4 NNE 6 9 3 5 1021.8 1020.8 0.0
26/08:30pm 12.7 9.4 -1.2 38 5.7 NNE 6 11 3 6 1021.6 1020.6 0.0
26/08:00pm 13.1 9.2 -1.6 36 6.0 NW 9 15 5 8 1021.1 1020.1 0.0
26/07:30pm 14.2 8.7 -1.8 33 6.6 WNW 17 26 9 14 1020.4 1019.4 0.0
26/07:00pm 14.6 9.1 -1.9 32 6.8 WNW 17 22 9 12 1020.0 1019.0 0.0
26/06:30pm 15.9 9.4 -2.1 29 7.4 WNW 22 32 12 17 1019.6 1018.6 0.0
26/06:00pm 17.4 11.4 -1.8 27 8.1 W 20 32 11 17 1019.1 1018.1 0.0
26/05:30pm 17.9 11.9 -1.9 26 8.4 WNW 20 33 11 18 1018.9 1017.9 0.0
26/05:00pm 17.6 11.2 -1.6 27 8.2 W 22 32 12 17 1018.9 1017.9 0.0
26/04:30pm 18.0 12.1 -0.8 28 8.2 WNW 20 32 11 17 1018.7 1017.6 0.0
26/04:00pm 18.5 12.5 -1.3 26 8.5 NW 20 33 11 18 1018.6 1017.5 0.0
26/03:30pm 18.1 11.5 -0.7 28 8.2 NW 24 37 13 20 1018.7 1017.6 0.0
26/03:00pm 16.8 10.5 -0.9 30 7.6 WNW 22 33 12 18 1018.8 1017.7 0.0
26/02:30pm 18.8 11.9 -0.1 28 8.4 NNW 26 39 14 21 1018.6 1017.5 0.0
26/02:00pm 17.9 11.0 2.6 36 7.1 N 28 41 15 22 1018.9 1017.9 0.0
26/01:30pm 17.9 12.0 5.8 45 6.0 WNW 26 39 14 21 1019.0 1018.0 0.0
26/01:00pm 16.8 10.8 5.1 46 5.7 WNW 26 39 14 21 1018.9 1017.9 0.0
26/12:30pm 16.6 10.6 3.6 42 6.1 NW 24 32 13 17 1019.1 1018.1 0.0
26/12:00pm 16.6 10.6 3.3 41 6.2 NW 24 33 13 18 1019.1 1018.1 0.0
26/11:30am 17.2 12.1 2.8 38 6.7 NW 19 26 10 14 1018.9 1017.9 0.0
26/11:00am 16.7 12.4 3.4 41 6.2 NW 15 22 8 12 1019.1 1018.1 0.0
26/10:30am 16.1 13.4 5.7 50 5.1 W 9 15 5 8 1019.2 1018.2 0.0
26/10:00am 13.3 10.9 6.9 65 3.1 SW 9 13 5 7 1019.2 1018.2 0.0
26/09:30am 11.5 10.7 6.4 71 2.5 CALM 0 0 0 0 1019.5 1018.5 0.0
26/09:00am 10.1 9.2 7.7 85 1.2 NE 2 6 1 3 1019.7 1018.7 0.0
26/08:30am 7.7 6.3 7.3 97 0.2 NNW 4 9 2 5 1019.5 1018.5 0.0
26/08:00am 7.7 5.8 6.5 92 0.6 SSE 6 7 3 4 1019.0 1018.0 0.0
26/07:30am 7.2 5.8 5.5 89 0.8 W 2 9 1 5 1018.5 1017.4 0.0
26/07:00am 8.8 7.3 6.6 86 1.0 NE 4 7 2 4 1018.7 1017.6 0.0
26/06:30am 8.4 7.3 6.9 90 0.7 N 2 7 1 4 1018.0 1017.0 0.0
26/06:00am 8.2 6.9 6.0 86 1.0 S 2 7 1 4 1017.7 1016.7 0.0
26/05:30am 9.4 8.7 7.0 85 1.1 CALM 0 0 0 0 1017.8 1016.8 0.0
26/05:00am 8.4 6.6 5.3 81 1.4 ESE 4 9 2 5 1017.5 1016.5 0.0
26/04:30am 8.7 6.8 4.9 77 1.7 S 4 7 2 4 1017.4 1016.4 0.0
26/04:00am 11.4 10.4 5.5 67 2.8 CALM 0 6 0 3 1017.4 1016.4 0.0
26/03:30am 10.9 10.2 7.0 77 1.9 CALM 0 0 0 0 1017.4 1016.4 0.0
26/03:00am 10.7 9.0 7.6 81 1.5 NW 6 9 3 5 1017.5 1016.5 0.0
26/02:30am 10.8 9.1 6.0 72 2.3 SSE 4 9 2 5 1017.4 1016.4 0.0
26/02:00am 11.3 9.4 4.7 64 3.0 S 4 9 2 5 1017.2 1016.2 0.0
26/01:30am 13.8 12.4 5.4 57 4.0 SSE 2 7 1 4 1017.0 1016.0 0.0
26/01:00am 13.5 11.3 5.2 57 3.9 NNW 6 11 3 6 1016.8 1015.8 0.0
26/12:30am 16.3 11.9 4.7 46 5.6 NNE 17 20 9 11 1016.8 1015.8 0.0
26/12:00am 16.4 12.1 5.1 47 5.5 N 17 24 9 13 1017.0 1016.0 0.0
 
Date/Time
EDT
Temp
°C
App
Temp
°C
Dew
Point
Rel
Hum
%
Delta-T
°C
Wind Press
QNH
hPa
Press
MSL
hPa
Rain
since 9 am
mm
Dir
 
Spd
km/h
Gust
km/h
Spd
kts
Gust
kts
25/11:30pm 17.0 12.3 5.0 45 5.8 N 19 24 10 13 1017.2 1016.2 0.0
25/11:00pm 16.6 13.1 5.3 47 5.5 N 13 19 7 10 1016.8 1015.8 0.0
25/10:30pm 16.5 15.0 6.9 53 4.8 N 4 9 2 5 1016.9 1015.9 0.0
25/10:00pm 16.2 14.6 8.2 59 4.1 N 6 15 3 8 1016.5 1015.5 0.0
25/09:30pm 17.1 14.6 8.3 56 4.6 NW 11 15 6 8 1016.1 1015.0 0.0
25/09:00pm 17.7 16.6 8.3 54 4.9 NE 4 15 2 8 1015.7 1014.6 0.0
25/08:30pm 17.9 15.9 8.5 54 4.9 NE 9 15 5 8 1015.5 1014.4 0.0
25/08:00pm 19.4 16.6 6.8 44 6.4 NE 11 17 6 9 1014.9 1013.9 0.0
25/07:30pm 19.9 16.1 5.9 40 7.1 NNW 15 20 8 11 1014.7 1013.7 0.0
25/07:00pm 21.3 17.9 6.0 37 7.8 WNW 13 20 7 11 1014.6 1013.6 0.0
25/06:30pm 21.7 18.5 6.8 38 7.7 WNW 13 19 7 10 1014.3 1013.3 0.0
25/06:00pm 23.1 19.2 7.2 36 8.4 WNW 17 20 9 11 1014.3 1013.3 0.0
25/05:30pm 23.0 19.8 6.7 35 8.5 W 13 19 7 10 1014.0 1013.0 0.0
25/05:00pm 23.3 20.2 7.4 36 8.4 W 13 19 7 10 1014.2 1013.2 0.0
25/04:30pm 23.0 19.4 6.7 35 8.5 WNW 15 24 8 13 1014.3 1013.3 0.0
25/04:00pm 23.5 20.3 6.7 34 8.8 NW 13 26 7 14 1014.6 1013.6 0.0
25/03:30pm 22.6 19.4 6.8 36 8.2 NW 13 20 7 11 1014.8 1013.8 0.0
25/03:00pm 22.4 17.8 6.6 36 8.2 WNW 20 30 11 16 1015.4 1014.3 0.0
25/02:30pm 22.2 19.0 6.8 37 8.0 W 13 20 7 11 1015.6 1014.5 0.0
25/02:00pm 21.9 19.1 7.0 38 7.8 SW 11 17 6 9 1015.8 1014.7 0.0
25/01:30pm 20.8 17.6 6.7 40 7.3 W 13 22 7 12 1016.8 1015.8 0.0
25/01:00pm 20.6 17.9 7.2 42 7.0 W 11 20 6 11 1017.5 1016.5 0.0
25/12:30pm 20.1 17.0 5.7 39 7.2 NW 11 20 6 11 1017.6 1016.6 0.0
25/12:00pm 20.1 17.4 7.5 44 6.6 WNW 11 22 6 12 1018.4 1017.3 0.0
25/11:30am 18.6 16.7 7.4 48 5.8 NNW 7 13 4 7 1018.5 1017.4 0.0
25/11:00am 18.2 16.8 8.7 54 5.0 NW 6 11 3 6 1018.5 1017.4 0.0
25/10:30am 16.0 14.3 7.7 58 4.2 WNW 6 9 3 5 1018.5 1017.4 0.0
25/10:00am 14.3 13.0 7.8 65 3.3 W 4 7 2 4 1018.1 1017.1 0.0
25/09:30am 12.9 12.3 9.0 77 2.0 SW 2 6 1 3 1018.1 1017.1 0.0
25/09:00am 11.2 11.0 9.1 87 1.1 CALM 0 0 0 0 1018.1 1017.1 0.2
25/08:30am 9.4 9.3 9.3 99 0.1 CALM 0 0 0 0 1017.9 1016.9 0.2
25/08:00am 7.4 6.8 7.4 100 0.0 CALM 0 6 0 3 1017.9 1016.9 0.2
25/07:30am 7.3 6.3 7.3 100 0.0 S 2 9 1 5 1017.8 1016.8 0.2
25/07:00am 7.6 7.0 7.6 100 0.0 CALM 0 0 0 0 1017.5 1016.5 0.2
25/06:30am 7.9 7.4 7.8 99 0.0 CALM 0 0 0 0 1016.8 1015.8 0.2
25/06:00am 7.3 5.5 7.2 99 0.0 S 6 9 3 5 1016.6 1015.6 0.2
25/05:30am 7.8 6.1 7.7 99 0.0 SSE 6 7 3 4 1016.4 1015.4 0.2
25/05:00am 8.6 7.9 8.5 99 0.0 S 2 6 1 3 1016.2 1015.1 0.2
25/04:30am 8.7 7.6 8.6 99 0.0 ENE 4 7 2 4 1015.9 1014.8 0.2
25/04:00am 9.0 8.6 8.4 96 0.3 CALM 0 6 0 3 1016.3 1015.3 0.2
25/03:30am 9.2 7.6 8.0 92 0.6 SSE 6 9 3 5 1016.3 1015.3 0.2
25/03:00am 10.0 8.7 9.1 94 0.5 SSE 6 13 3 7 1016.4 1015.4 0.2
25/02:30am 9.8 8.7 8.6 92 0.6 SSE 4 7 2 4 1016.2 1015.1 0.2
25/02:00am 10.4 9.4 8.7 89 0.9 SSE 4 9 2 5 1016.3 1015.3 0.2
25/01:30am 11.0 10.0 8.8 86 1.1 SSE 4 7 2 4 1016.1 1015.0 0.2
25/01:00am 12.1 12.0 9.3 83 1.4 CALM 0 0 0 0 1016.1 1015.0 0.2
25/12:30am 12.5 12.4 9.5 82 1.6 CALM 0 7 0 4 1016.1 1015.0 0.2
25/12:00am 13.4 13.5 10.2 81 1.7 CALM 0 2 0 1 1016.2 1015.1 0.2
 
Date/Time
EDT
Temp
°C
App
Temp
°C
Dew
Point
Rel
Hum
%
Delta-T
°C
Wind Press
QNH
hPa
Press
MSL
hPa
Rain
since 9 am
mm
Dir
 
Spd
km/h
Gust
km/h
Spd
kts
Gust
kts
24/11:30pm 13.2 12.9 10.0 81 1.7 SSE 2 6 1 3 1016.0 1014.9 0.2
24/11:00pm 13.4 13.1 10.0 80 1.8 E 2 7 1 4 1015.9 1014.8 0.2
24/10:30pm 13.0 12.6 9.8 81 1.7 SSE 2 6 1 3 1015.8 1014.7 0.2
24/10:00pm 14.3 14.4 10.3 77 2.1 CALM 0 0 0 0 1015.4 1014.3 0.2
24/09:30pm 14.9 14.9 9.7 71 2.7 CALM 0 6 0 3 1014.8 1013.8 0.2
24/09:00pm 16.5 15.8 10.1 66 3.4 SW 4 9 2 5 1014.3 1013.3 0.2
24/08:30pm 16.4 15.3 10.5 68 3.2 SE 7 11 4 6 1013.7 1012.7 0.2
24/08:00pm 16.7 16.3 9.6 63 3.8 S 2 7 1 4 1013.1 1012.0 0.2
24/07:30pm 18.1 14.9 10.0 59 4.4 SSW 17 24 9 13 1012.5 1011.4 0.2
24/07:00pm 19.7 17.6 8.4 48 6.0 NE 9 13 5 7 1011.8 1010.8 0.2
24/06:30pm 21.1 18.6 8.4 44 6.8 NNE 11 19 6 10 1011.4 1010.4 0.2
24/06:00pm 20.3 17.5 8.6 47 6.2 N 13 19 7 10 1011.1 1010.0 0.2
24/05:30pm 21.5 17.3 7.3 40 7.4 NNW 19 26 10 14 1010.8 1009.7 0.2
24/05:00pm 21.6 18.4 8.5 43 7.0 NW 15 20 8 11 1010.8 1009.7 0.2
24/04:30pm 22.9 19.2 9.3 42 7.4 N 19 24 10 13 1010.6 1009.5 0.2
24/04:00pm 23.1 19.5 9.8 43 7.4 NNW 19 28 10 15 1010.8 1009.7 0.0
24/03:30pm 22.4 19.4 10.5 47 6.6 NNW 17 26 9 14 1010.7 1009.6 0.0
24/03:00pm 21.5 18.3 11.2 52 5.8 NNW 19 30 10 16 1011.1 1010.0 0.0
24/02:30pm 21.6 18.5 11.6 53 5.7 N 19 28 10 15 1011.2 1010.2 0.0
24/02:00pm 21.4 19.6 12.0 55 5.4 NW 13 24 7 13 1011.6 1010.6 0.0
24/01:30pm 21.7 18.9 13.3 59 4.9 NNW 20 26 11 14 1011.9 1010.9 0.0
24/01:00pm 20.7 18.5 15.9 74 2.9 NW 22 28 12 15 1011.9 1010.9 0.0
24/12:30pm 19.3 17.8 15.2 77 2.4 WNW 17 22 9 12 1012.3 1011.2 0.0
24/12:00pm 18.9 18.1 15.0 78 2.3 WNW 13 17 7 9 1012.6 1011.5 0.0
24/11:30am 18.7 18.9 15.8 83 1.7 NW 9 15 5 8 1012.6 1011.5 0.0
24/11:00am 18.3 18.6 15.0 81 2.0 NW 7 13 4 7 1012.9 1011.8 0.0

Other Formats:

Comma delimited format used in spreadsheet applications
http://www.bom.gov.au/fwo/IDN60801/IDN60801.94919.axf

JavaScript Object Notation format (JSON) in row-major order
http://www.bom.gov.au/fwo/IDN60801/IDN60801.94919.json